sensor_id;sensor_type;location;lat;lon;timestamp;pressure;altitude;pressure_sealevel;temperature;humidity
63901;BME280;50538;53.482;10.294;2023-02-28T00:05:24;102748.34;;;1.90;85.00
63901;BME280;50538;53.482;10.294;2023-02-28T00:15:25;102743.72;;;1.75;85.10
63901;BME280;50538;53.482;10.294;2023-02-28T00:25:25;102743.53;;;1.57;85.72
63901;BME280;50538;53.482;10.294;2023-02-28T00:35:27;102738.28;;;1.34;85.72
63901;BME280;50538;53.482;10.294;2023-02-28T00:45:27;102748.66;;;1.14;86.59
63901;BME280;50538;53.482;10.294;2023-02-28T00:55:28;102760.63;;;0.96;87.12
63901;BME280;50538;53.482;10.294;2023-02-28T01:05:28;102754.28;;;0.78;87.38
63901;BME280;50538;53.482;10.294;2023-02-28T01:15:28;102765.34;;;0.61;87.71
63901;BME280;50538;53.482;10.294;2023-02-28T01:25:29;102766.75;;;0.45;87.49
63901;BME280;50538;53.482;10.294;2023-02-28T01:35:32;102759.44;;;0.30;86.21
63901;BME280;50538;53.482;10.294;2023-02-28T01:45:34;102768.56;;;0.17;86.46
63901;BME280;50538;53.482;10.294;2023-02-28T01:55:36;102763.72;;;0.06;87.85
63901;BME280;50538;53.482;10.294;2023-02-28T02:05:39;102758.81;;;-0.05;87.66
63901;BME280;50538;53.482;10.294;2023-02-28T02:26:24;102750.84;;;-0.28;87.55
63901;BME280;50538;53.482;10.294;2023-02-28T02:46:41;102756.91;;;-0.55;88.36
63901;BME280;50538;53.482;10.294;2023-02-28T02:56:46;102756.25;;;-0.64;88.12
63901;BME280;50538;53.482;10.294;2023-02-28T03:06:50;102759.25;;;-0.77;88.03
63901;BME280;50538;53.482;10.294;2023-02-28T03:27:10;102757.25;;;-0.99;88.47
63901;BME280;50538;53.482;10.294;2023-02-28T03:37:16;102760.06;;;-1.05;88.69
63901;BME280;50538;53.482;10.294;2023-02-28T03:47:28;102770.72;;;-1.14;88.42
63901;BME280;50538;53.482;10.294;2023-02-28T03:57:48;102781.38;;;-1.23;89.00
63901;BME280;50538;53.482;10.294;2023-02-28T04:07:51;102775.59;;;-1.34;89.28
63901;BME280;50538;53.482;10.294;2023-02-28T04:17:51;102767.16;;;-1.44;88.51
63901;BME280;50538;53.482;10.294;2023-02-28T04:27:51;102772.47;;;-1.48;89.42
63901;BME280;50538;53.482;10.294;2023-02-28T04:37:52;102774.34;;;-1.53;89.40
63901;BME280;50538;53.482;10.294;2023-02-28T04:47:52;102767.78;;;-1.68;89.34
63901;BME280;50538;53.482;10.294;2023-02-28T04:57:56;102776.78;;;-1.81;89.26
63901;BME280;50538;53.482;10.294;2023-02-28T05:07:56;102782.28;;;-1.93;89.79
63901;BME280;50538;53.482;10.294;2023-02-28T05:17:57;102776.34;;;-2.00;89.61
63901;BME280;50538;53.482;10.294;2023-02-28T05:27:57;102801.59;;;-2.04;90.23
63901;BME280;50538;53.482;10.294;2023-02-28T05:37:58;102800.75;;;-2.04;90.23
63901;BME280;50538;53.482;10.294;2023-02-28T05:47:58;102797.38;;;-2.09;89.75
63901;BME280;50538;53.482;10.294;2023-02-28T05:57:58;102809.63;;;-2.14;90.21
63901;BME280;50538;53.482;10.294;2023-02-28T06:07:59;102811.53;;;-2.21;89.91
63901;BME280;50538;53.482;10.294;2023-02-28T06:17:59;102821.16;;;-2.24;89.74
63901;BME280;50538;53.482;10.294;2023-02-28T06:28:00;102823.91;;;-2.32;89.60
63901;BME280;50538;53.482;10.294;2023-02-28T06:38:00;102829.06;;;-2.29;90.51
63901;BME280;50538;53.482;10.294;2023-02-28T06:48:01;102834.81;;;-2.15;91.03
63901;BME280;50538;53.482;10.294;2023-02-28T06:58:01;102842.97;;;-1.91;91.36
63901;BME280;50538;53.482;10.294;2023-02-28T07:08:03;102836.44;;;-1.71;90.66
63901;BME280;50538;53.482;10.294;2023-02-28T07:18:04;102843.78;;;-1.52;90.87
63901;BME280;50538;53.482;10.294;2023-02-28T07:28:04;102846.94;;;-1.40;91.38
63901;BME280;50538;53.482;10.294;2023-02-28T07:38:05;102832.50;;;-1.17;92.30
63901;BME280;50538;53.482;10.294;2023-02-28T07:48:07;102847.16;;;-0.81;93.54
63901;BME280;50538;53.482;10.294;2023-02-28T07:58:10;102836.75;;;-0.20;94.87
63901;BME280;50538;53.482;10.294;2023-02-28T08:08:10;102846.72;;;0.51;93.51
63901;BME280;50538;53.482;10.294;2023-02-28T08:18:10;102838.16;;;1.23;90.15
63901;BME280;50538;53.482;10.294;2023-02-28T08:28:11;102853.00;;;1.93;87.23
63901;BME280;50538;53.482;10.294;2023-02-28T08:38:11;102853.41;;;2.49;82.26
63901;BME280;50538;53.482;10.294;2023-02-28T08:48:11;102853.66;;;3.06;80.12
63901;BME280;50538;53.482;10.294;2023-02-28T08:58:13;102860.28;;;3.55;76.31
63901;BME280;50538;53.482;10.294;2023-02-28T09:08:14;102848.72;;;3.96;74.38
63901;BME280;50538;53.482;10.294;2023-02-28T09:18:15;102855.53;;;4.37;71.46
63901;BME280;50538;53.482;10.294;2023-02-28T09:28:15;102861.25;;;4.81;70.03
63901;BME280;50538;53.482;10.294;2023-02-28T09:38:17;102858.78;;;5.12;64.93
63901;BME280;50538;53.482;10.294;2023-02-28T09:48:22;102866.69;;;5.12;59.71
63901;BME280;50538;53.482;10.294;2023-02-28T09:58:45;102868.38;;;5.13;58.15
63901;BME280;50538;53.482;10.294;2023-02-28T10:09:00;102874.50;;;5.14;53.99
63901;BME280;50538;53.482;10.294;2023-02-28T10:19:16;102872.41;;;5.20;53.40
63901;BME280;50538;53.482;10.294;2023-02-28T10:29:28;102868.53;;;5.27;55.30
63901;BME280;50538;53.482;10.294;2023-02-28T10:39:37;102862.19;;;5.31;55.54
63901;BME280;50538;53.482;10.294;2023-02-28T10:49:47;102856.81;;;5.33;55.32
63901;BME280;50538;53.482;10.294;2023-02-28T10:59:51;102852.50;;;5.32;54.78
63901;BME280;50538;53.482;10.294;2023-02-28T11:09:57;102861.84;;;5.38;54.78
63901;BME280;50538;53.482;10.294;2023-02-28T11:20:14;102858.97;;;5.42;54.27
63901;BME280;50538;53.482;10.294;2023-02-28T11:30:59;102854.50;;;5.60;53.60
63901;BME280;50538;53.482;10.294;2023-02-28T11:41:30;102847.03;;;5.68;54.44
63901;BME280;50538;53.482;10.294;2023-02-28T11:51:35;102831.91;;;5.72;52.28
63901;BME280;50538;53.482;10.294;2023-02-28T12:02:01;102818.00;;;5.85;52.49
63901;BME280;50538;53.482;10.294;2023-02-28T12:12:40;102810.56;;;6.08;52.84
63901;BME280;50538;53.482;10.294;2023-02-28T12:33:32;102778.13;;;6.37;51.73
63901;BME280;50538;53.482;10.294;2023-02-28T12:43:44;102759.31;;;6.43;51.32
63901;BME280;50538;53.482;10.294;2023-02-28T12:54:24;102753.78;;;6.62;50.68
63901;BME280;50538;53.482;10.294;2023-02-28T13:16:14;102704.34;;;6.94;48.85
63901;BME280;50538;53.482;10.294;2023-02-28T13:26:18;102712.44;;;7.19;50.46
63901;BME280;50538;53.482;10.294;2023-02-28T13:36:35;102710.16;;;7.42;50.13
63901;BME280;50538;53.482;10.294;2023-02-28T14:08:08;102708.72;;;7.77;48.69
63901;BME280;50538;53.482;10.294;2023-02-28T14:40:27;102722.41;;;7.84;47.00
63901;BME280;50538;53.482;10.294;2023-02-28T14:50:57;102713.72;;;7.82;49.40
63901;BME280;50538;53.482;10.294;2023-02-28T15:01:00;102712.22;;;7.78;48.44
63901;BME280;50538;53.482;10.294;2023-02-28T15:11:04;102715.34;;;7.70;48.36
63901;BME280;50538;53.482;10.294;2023-02-28T15:21:10;102702.09;;;7.57;48.89
63901;BME280;50538;53.482;10.294;2023-02-28T15:31:25;102688.34;;;7.38;48.67
63901;BME280;50538;53.482;10.294;2023-02-28T15:41:35;102683.75;;;7.13;48.12
63901;BME280;50538;53.482;10.294;2023-02-28T15:51:43;102678.69;;;6.82;51.97
63901;BME280;50538;53.482;10.294;2023-02-28T16:01:45;102672.75;;;6.48;53.01
63901;BME280;50538;53.482;10.294;2023-02-28T16:11:50;102673.56;;;6.20;52.75
63901;BME280;50538;53.482;10.294;2023-02-28T16:21:53;102670.56;;;5.96;53.89
63901;BME280;50538;53.482;10.294;2023-02-28T16:31:53;102677.25;;;5.72;56.56
63901;BME280;50538;53.482;10.294;2023-02-28T16:42:22;102689.84;;;5.35;55.45
63901;BME280;50538;53.482;10.294;2023-02-28T16:52:25;102692.44;;;5.04;59.47
63901;BME280;50538;53.482;10.294;2023-02-28T17:02:25;102695.25;;;4.68;61.40
63901;BME280;50538;53.482;10.294;2023-02-28T17:12:25;102704.00;;;4.34;64.26
63901;BME280;50538;53.482;10.294;2023-02-28T17:22:27;102716.94;;;4.04;66.35
63901;BME280;50538;53.482;10.294;2023-02-28T17:32:27;102724.56;;;3.73;67.60
63901;BME280;50538;53.482;10.294;2023-02-28T17:42:28;102729.00;;;3.34;68.97
63901;BME280;50538;53.482;10.294;2023-02-28T17:52:29;102735.69;;;3.02;69.19
63901;BME280;50538;53.482;10.294;2023-02-28T18:02:29;102731.69;;;2.75;71.24
63901;BME280;50538;53.482;10.294;2023-02-28T18:12:35;102740.59;;;2.51;73.19
63901;BME280;50538;53.482;10.294;2023-02-28T18:22:36;102746.09;;;2.24;73.95
63901;BME280;50538;53.482;10.294;2023-02-28T18:32:36;102746.34;;;1.96;74.00
63901;BME280;50538;53.482;10.294;2023-02-28T18:42:37;102755.84;;;1.77;74.98
63901;BME280;50538;53.482;10.294;2023-02-28T18:52:38;102755.03;;;1.53;76.40
63901;BME280;50538;53.482;10.294;2023-02-28T19:02:39;102760.19;;;1.31;76.89
63901;BME280;50538;53.482;10.294;2023-02-28T19:12:39;102760.91;;;1.13;77.85
63901;BME280;50538;53.482;10.294;2023-02-28T19:22:41;102757.91;;;0.99;78.69
63901;BME280;50538;53.482;10.294;2023-02-28T19:32:43;102748.19;;;0.78;78.91
63901;BME280;50538;53.482;10.294;2023-02-28T19:42:43;102754.09;;;0.59;79.78
63901;BME280;50538;53.482;10.294;2023-02-28T19:52:44;102760.47;;;0.51;80.00
63901;BME280;50538;53.482;10.294;2023-02-28T20:02:44;102752.94;;;0.42;79.83
63901;BME280;50538;53.482;10.294;2023-02-28T20:12:45;102764.69;;;0.28;79.85
63901;BME280;50538;53.482;10.294;2023-02-28T20:22:45;102759.88;;;0.16;80.25
63901;BME280;50538;53.482;10.294;2023-02-28T20:32:46;102756.72;;;0.07;80.54
63901;BME280;50538;53.482;10.294;2023-02-28T20:42:46;102762.38;;;-0.07;81.06
63901;BME280;50538;53.482;10.294;2023-02-28T20:52:47;102753.13;;;-0.17;81.21
63901;BME280;50538;53.482;10.294;2023-02-28T21:02:47;102746.41;;;-0.26;81.47
63901;BME280;50538;53.482;10.294;2023-02-28T21:12:49;102752.81;;;-0.36;81.74
63901;BME280;50538;53.482;10.294;2023-02-28T21:22:50;102753.09;;;-0.45;82.08
63901;BME280;50538;53.482;10.294;2023-02-28T21:32:51;102754.28;;;-0.55;82.40
63901;BME280;50538;53.482;10.294;2023-02-28T21:42:52;102763.09;;;-0.59;82.74
63901;BME280;50538;53.482;10.294;2023-02-28T21:52:52;102771.16;;;-0.67;82.85
63901;BME280;50538;53.482;10.294;2023-02-28T22:02:52;102766.16;;;-0.75;82.81
63901;BME280;50538;53.482;10.294;2023-02-28T22:12:53;102766.19;;;-0.76;82.52
63901;BME280;50538;53.482;10.294;2023-02-28T22:22:53;102766.47;;;-0.87;81.79
63901;BME280;50538;53.482;10.294;2023-02-28T22:32:54;102763.28;;;-0.97;82.72
63901;BME280;50538;53.482;10.294;2023-02-28T22:42:54;102768.00;;;-1.09;83.53
63901;BME280;50538;53.482;10.294;2023-02-28T22:52:54;102774.22;;;-1.15;83.52
63901;BME280;50538;53.482;10.294;2023-02-28T23:02:55;102769.09;;;-1.18;83.36
63901;BME280;50538;53.482;10.294;2023-02-28T23:12:55;102776.16;;;-1.23;83.10
63901;BME280;50538;53.482;10.294;2023-02-28T23:22:56;102762.41;;;-1.28;82.63
63901;BME280;50538;53.482;10.294;2023-02-28T23:32:56;102759.91;;;-1.33;82.26
63901;BME280;50538;53.482;10.294;2023-02-28T23:42:56;102756.56;;;-1.38;82.31
63901;BME280;50538;53.482;10.294;2023-02-28T23:52:57;102761.13;;;-1.46;82.83
